createdAt,value
2023-03-24T00:00:35.146Z,61.67
2023-03-24T00:03:03.194Z,74.60
2023-03-24T00:05:31.532Z,70.20
2023-03-24T00:08:04.492Z,69.70
2023-03-24T00:10:35.130Z,72.73
2023-03-24T00:13:03.456Z,59.90
2023-03-24T00:15:31.709Z,101.70
2023-03-24T00:17:59.397Z,46.23
2023-03-24T00:20:27.353Z,56.13
2023-03-24T00:23:02.200Z,37.60
2023-03-24T00:25:36.663Z,38.07
2023-03-24T00:28:07.398Z,35.57
2023-03-24T00:30:35.356Z,47.53
2023-03-24T00:33:04.490Z,39.57
2023-03-24T00:35:32.055Z,19.50
2023-03-24T00:38:00.737Z,40.27
2023-03-24T00:40:28.404Z,28.73
2023-03-24T00:42:56.107Z,24.53
2023-03-24T00:45:25.616Z,38.70
2023-03-24T00:47:58.241Z,20.33
2023-03-24T00:50:27.546Z,10.43
2023-03-24T00:52:56.146Z,9.87
2023-03-24T00:55:23.739Z,6.13
2023-03-24T00:57:51.528Z,8.00
2023-03-24T01:00:24.342Z,8.17
2023-03-24T01:02:55.506Z,6.57
2023-03-24T01:05:28.566Z,6.77
2023-03-24T01:08:03.869Z,5.57
2023-03-24T01:10:34.516Z,4.43
2023-03-24T01:13:02.577Z,4.03
2023-03-24T01:15:33.752Z,6.77
2023-03-24T01:18:04.428Z,6.77
2023-03-24T01:20:33.443Z,8.13
2023-03-24T01:23:05.171Z,5.67
2023-03-24T01:25:33.182Z,5.63
2023-03-24T01:28:00.770Z,6.97
2023-03-24T01:30:29.613Z,7.03
2023-03-24T01:32:58.130Z,7.93
2023-03-24T01:35:28.968Z,7.20
2023-03-24T01:37:57.414Z,6.23
2023-03-24T01:40:36.141Z,6.10
2023-03-24T01:43:04.408Z,5.10
2023-03-24T01:45:40.566Z,8.00
2023-03-24T01:48:37.043Z,8.13
2023-03-24T01:51:34.930Z,8.57
2023-03-24T01:54:07.517Z,8.53
2023-03-24T01:56:39.969Z,9.27
2023-03-24T01:59:19.201Z,10.00
2023-03-24T02:01:46.901Z,8.93
2023-03-24T02:04:15.828Z,9.67
2023-03-24T02:06:45.745Z,9.17
2023-03-24T02:09:14.558Z,9.10
2023-03-24T02:11:42.549Z,9.90
2023-03-24T02:14:12.457Z,7.40
2023-03-24T02:16:43.484Z,11.77
2023-03-24T02:19:47.913Z,8.90
2023-03-24T02:22:32.185Z,8.17
2023-03-24T02:25:41.958Z,8.27
2023-03-24T02:28:15.741Z,8.87
2023-03-24T02:31:24.874Z,8.00
2023-03-24T02:34:16.838Z,12.20
2023-03-24T02:36:55.252Z,10.30
2023-03-24T02:39:49.610Z,8.03
2023-03-24T02:42:38.587Z,9.33
2023-03-24T02:45:08.846Z,9.93
2023-03-24T02:48:10.002Z,12.03
2023-03-24T02:50:42.970Z,13.13
2023-03-24T02:53:17.780Z,16.93
2023-03-24T02:55:57.308Z,12.23
2023-03-24T02:59:00.097Z,15.13
2023-03-24T03:01:35.901Z,16.30
2023-03-24T03:04:08.677Z,16.20
2023-03-24T03:06:40.485Z,19.30
2023-03-24T03:09:12.532Z,18.58
2023-03-24T03:11:44.406Z,26.42
2023-03-24T03:14:18.114Z,25.20
2023-03-24T03:16:47.503Z,16.95
2023-03-24T03:19:19.997Z,17.23
2023-03-24T03:21:50.706Z,33.60
2023-03-24T03:24:27.550Z,24.65
2023-03-24T03:27:02.574Z,25.85
2023-03-24T03:29:37.432Z,20.97
2023-03-24T03:32:10.876Z,44.40
2023-03-24T03:34:46.431Z,51.67
2023-03-24T03:37:47.273Z,63.88
2023-03-24T03:40:25.536Z,36.60
2023-03-24T03:42:53.086Z,39.77
2023-03-24T03:45:20.753Z,85.50
2023-03-24T03:47:48.611Z,60.35
2023-03-24T03:50:16.345Z,93.73
2023-03-24T03:52:44.784Z,75.13
2023-03-24T03:55:13.130Z,50.42
2023-03-24T03:57:41.262Z,63.17
2023-03-24T04:00:15.876Z,55.25
2023-03-24T04:03:08.244Z,46.80
2023-03-24T04:05:38.230Z,92.18
2023-03-24T04:08:14.746Z,76.23
2023-03-24T04:10:48.216Z,117.72
2023-03-24T04:13:49.381Z,63.22
2023-03-24T04:16:31.387Z,54.88
2023-03-24T04:19:12.102Z,51.90
2023-03-24T04:21:51.872Z,87.10
2023-03-24T04:24:43.229Z,117.80
2023-03-24T04:27:46.813Z,81.22
2023-03-24T04:30:38.319Z,62.33
2023-03-24T04:33:17.792Z,72.53
2023-03-24T04:36:06.911Z,215.27
2023-03-24T04:38:36.547Z,61.40
2023-03-24T04:41:05.896Z,71.40
2023-03-24T04:43:36.885Z,42.67
2023-03-24T04:46:07.171Z,55.88
2023-03-24T04:48:34.738Z,37.17
2023-03-24T04:51:03.539Z,55.07
2023-03-24T04:53:31.073Z,125.47
2023-03-24T04:56:14.497Z,67.18
2023-03-24T04:58:41.983Z,64.47
2023-03-24T05:01:09.417Z,57.23
2023-03-24T05:03:38.321Z,54.90
2023-03-24T05:06:06.293Z,43.85
2023-03-24T05:08:33.941Z,84.88
2023-03-24T05:11:01.787Z,35.72
2023-03-24T05:13:29.109Z,24.15
2023-03-24T05:15:56.768Z,38.45
2023-03-24T05:18:24.869Z,86.43
2023-03-24T05:20:53.868Z,58.25
2023-03-24T05:23:21.302Z,71.53
2023-03-24T05:25:48.972Z,75.15
2023-03-24T05:28:16.565Z,34.65
2023-03-24T05:30:44.224Z,80.32
2023-03-24T05:33:11.807Z,43.35
2023-03-24T05:35:39.208Z,37.90
2023-03-24T05:38:06.688Z,41.70
2023-03-24T05:40:34.508Z,26.05
2023-03-24T05:43:02.209Z,33.47
2023-03-24T05:45:30.554Z,22.63
2023-03-24T05:47:58.265Z,27.93
2023-03-24T05:50:26.149Z,25.70
2023-03-24T05:52:53.761Z,109.97
2023-03-24T05:55:22.094Z,58.65
2023-03-24T05:57:49.841Z,66.40
2023-03-24T06:00:18.000Z,134.20
2023-03-24T06:02:46.330Z,120.63
2023-03-24T06:05:14.358Z,82.68
2023-03-24T06:07:45.190Z,69.82
2023-03-24T06:10:14.615Z,136.60
2023-03-24T06:13:34.436Z,52.55
2023-03-24T06:16:08.286Z,88.53
2023-03-24T06:18:36.213Z,52.95
2023-03-24T06:21:03.966Z,127.50
2023-03-24T06:24:15.087Z,38.13
2023-03-24T06:26:51.772Z,173.85
2023-03-24T06:29:20.724Z,153.63
2023-03-24T06:32:07.357Z,251.48
2023-03-24T06:38:16.639Z,82.25
2023-03-24T06:44:06.598Z,17.15
2023-03-24T06:50:17.572Z,10.10
2023-03-24T07:10:55.186Z,8.38
2023-03-24T07:13:23.263Z,11.02
2023-03-24T07:15:51.773Z,10.80
2023-03-24T07:18:23.354Z,9.88
2023-03-24T07:20:56.705Z,11.02
2023-03-24T07:23:33.166Z,10.80
2023-03-24T07:29:49.016Z,14.35
2023-03-24T07:32:28.505Z,13.82
2023-03-24T07:35:05.222Z,12.48
2023-03-24T07:37:44.561Z,8.65
2023-03-24T07:40:25.053Z,9.07
2023-03-24T07:46:21.854Z,8.35
2023-03-24T07:48:50.178Z,14.98
2023-03-24T07:51:20.266Z,14.20
2023-03-24T07:53:48.959Z,9.68
2023-03-24T07:56:17.198Z,14.15
2023-03-24T07:58:44.948Z,11.80
2023-03-24T08:01:15.347Z,15.63
2023-03-24T08:03:44.218Z,16.02
2023-03-24T08:06:19.869Z,18.83
2023-03-24T08:09:35.165Z,15.95
2023-03-24T08:12:10.335Z,10.75
2023-03-24T08:15:34.179Z,14.32
2023-03-24T08:18:03.270Z,17.55
2023-03-24T08:20:31.231Z,11.63
2023-03-24T08:22:59.339Z,14.23
2023-03-24T08:25:29.067Z,11.18
2023-03-24T08:27:57.790Z,10.95
2023-03-24T08:30:26.901Z,11.85
2023-03-24T08:32:57.382Z,9.02
2023-03-24T08:35:35.706Z,8.80
2023-03-24T08:38:06.885Z,6.35
2023-03-24T08:40:37.791Z,15.50
2023-03-24T08:43:40.837Z,12.48
2023-03-24T08:46:12.450Z,9.45
2023-03-24T08:48:48.470Z,13.02
2023-03-24T08:51:21.226Z,11.63
2023-03-24T08:53:49.313Z,15.00
2023-03-24T08:56:35.473Z,9.82
2023-03-24T08:59:44.012Z,14.43
2023-03-24T09:02:12.792Z,8.63
2023-03-24T09:04:43.083Z,10.90
2023-03-24T09:07:10.826Z,12.65
2023-03-24T09:09:40.059Z,9.82
2023-03-24T09:12:08.839Z,9.68
2023-03-24T09:14:37.723Z,9.05
2023-03-24T09:17:05.405Z,9.15
2023-03-24T09:20:24.975Z,8.20
2023-03-24T09:23:07.516Z,8.55
2023-03-24T09:25:36.143Z,8.55
2023-03-24T09:28:04.266Z,10.65
2023-03-24T09:30:33.929Z,6.63
2023-03-24T09:36:01.876Z,14.85
2023-03-24T09:41:13.872Z,14.45
2023-03-24T09:43:45.357Z,10.93
2023-03-24T09:46:41.749Z,6.70
2023-03-24T09:49:17.203Z,10.32
2023-03-24T09:52:34.911Z,8.40
2023-03-24T09:55:21.960Z,9.48
2023-03-24T09:57:52.058Z,9.75
2023-03-24T10:00:23.357Z,16.35
2023-03-24T10:02:53.081Z,10.15
2023-03-24T10:05:37.828Z,12.52
2023-03-24T10:08:18.850Z,9.20
2023-03-24T10:11:07.758Z,14.57
2023-03-24T10:14:07.639Z,14.65
2023-03-24T10:17:08.830Z,9.10
2023-03-24T10:20:00.221Z,12.48
2023-03-24T10:22:34.110Z,13.43
2023-03-24T10:25:19.892Z,17.90
2023-03-24T10:27:58.845Z,11.57
2023-03-24T10:30:30.780Z,9.40
2023-03-24T10:33:01.117Z,22.98
2023-03-24T10:35:33.710Z,13.80
2023-03-24T10:38:05.713Z,13.95
2023-03-24T10:40:33.987Z,16.48
2023-03-24T10:43:07.290Z,17.73
2023-03-24T10:45:40.978Z,15.80
2023-03-24T10:48:09.579Z,15.13
2023-03-24T10:50:43.824Z,12.57
2023-03-24T10:53:23.412Z,15.15
2023-03-24T10:55:55.546Z,13.68
2023-03-24T11:06:57.008Z,30.00
2023-03-24T11:16:45.061Z,19.02
2023-03-24T11:22:12.101Z,26.35
2023-03-24T11:24:39.792Z,16.92
2023-03-24T11:27:10.501Z,16.05
2023-03-24T11:29:41.126Z,19.42
2023-03-24T11:32:20.483Z,23.17
2023-03-24T11:35:17.803Z,10.70
2023-03-24T11:37:46.955Z,18.20
2023-03-24T11:40:19.058Z,19.65
2023-03-24T11:43:08.735Z,17.17
2023-03-24T11:45:39.386Z,12.57
2023-03-24T11:48:35.835Z,18.75
2023-03-24T11:51:05.957Z,28.40
2023-03-24T11:53:48.073Z,18.80
2023-03-24T11:56:46.296Z,24.80
2023-03-24T11:59:39.959Z,21.38
2023-03-24T12:02:21.706Z,24.00
2023-03-24T12:05:16.537Z,15.20
2023-03-24T12:08:05.260Z,22.15
2023-03-24T12:10:58.127Z,23.95
2023-03-24T12:13:36.629Z,15.02
2023-03-24T12:16:28.568Z,22.75
2023-03-24T12:19:01.622Z,19.92
2023-03-24T12:21:40.133Z,20.40
2023-03-24T12:24:18.517Z,22.63
2023-03-24T12:26:47.506Z,18.35
2023-03-24T12:29:52.572Z,19.50
2023-03-24T12:32:48.735Z,18.33
2023-03-24T12:35:38.275Z,16.17
2023-03-24T12:38:21.580Z,14.50
2023-03-24T12:40:51.765Z,21.95
2023-03-24T12:43:43.264Z,19.55
2023-03-24T12:46:46.756Z,18.88
2023-03-24T12:49:53.195Z,21.40
2023-03-24T12:52:29.142Z,13.52
2023-03-24T12:55:14.746Z,21.13
2023-03-24T12:57:56.167Z,16.00
2023-03-24T13:00:31.570Z,19.08
2023-03-24T13:03:18.639Z,15.55
2023-03-24T13:05:52.722Z,19.02
2023-03-24T13:08:29.600Z,15.07
2023-03-24T13:11:05.565Z,16.92
2023-03-24T13:13:41.009Z,21.05
2023-03-24T13:16:22.701Z,20.95
2023-03-24T13:18:56.432Z,21.02
2023-03-24T13:21:26.591Z,18.48
2023-03-24T13:24:10.683Z,15.45
2023-03-24T13:27:11.935Z,13.70
2023-03-24T13:30:09.421Z,13.35
2023-03-24T13:32:43.826Z,17.33
2023-03-24T13:35:53.536Z,18.27
2023-03-24T13:38:35.461Z,15.88
2023-03-24T13:41:05.944Z,17.33
2023-03-24T13:43:35.045Z,17.85
2023-03-24T13:46:06.343Z,20.85
2023-03-24T13:48:44.018Z,17.33
2023-03-24T13:51:21.913Z,13.13
2023-03-24T13:53:54.532Z,15.93
2023-03-24T13:56:31.347Z,16.33
2023-03-24T13:58:58.618Z,17.83
2023-03-24T14:01:41.137Z,21.95
2023-03-24T14:04:26.079Z,17.95
2023-03-24T14:06:55.099Z,18.05
2023-03-24T14:09:25.321Z,14.32
2023-03-24T14:11:55.959Z,15.73
2023-03-24T14:14:25.845Z,16.10
2023-03-24T14:17:04.492Z,19.25
2023-03-24T14:19:41.942Z,18.50
2023-03-24T14:22:30.860Z,17.85
2023-03-24T14:25:04.552Z,23.10
2023-03-24T14:27:43.367Z,17.40
2023-03-24T14:30:11.136Z,23.45
2023-03-24T14:32:48.743Z,12.85
2023-03-24T14:35:36.155Z,22.08
2023-03-24T14:38:19.025Z,23.65
2023-03-24T14:40:53.075Z,17.15
2023-03-24T14:43:30.773Z,23.70
2023-03-24T14:46:06.717Z,21.38
2023-03-24T14:48:39.501Z,18.25
2023-03-24T14:51:21.325Z,17.75
2023-03-24T14:53:48.940Z,17.17
2023-03-24T14:56:17.837Z,22.30
2023-03-24T14:58:51.118Z,18.05
2023-03-24T15:01:18.618Z,14.88
2023-03-24T15:03:55.548Z,16.95
2023-03-24T15:06:24.916Z,25.83
2023-03-24T15:08:54.353Z,18.25
2023-03-24T15:11:32.241Z,22.08
2023-03-24T15:14:02.128Z,23.67
2023-03-24T15:16:38.152Z,19.45
2023-03-24T15:19:20.657Z,21.23
2023-03-24T15:22:00.570Z,16.92
2023-03-24T15:24:30.019Z,20.98
2023-03-24T15:27:09.352Z,14.48
2023-03-24T15:29:39.508Z,26.48
2023-03-24T15:32:11.722Z,24.98
2023-03-24T15:34:47.002Z,22.70
2023-03-24T15:37:31.172Z,23.70
2023-03-24T15:40:05.578Z,14.20
2023-03-24T15:42:45.003Z,17.95
2023-03-24T15:45:27.534Z,15.73
2023-03-24T15:47:56.672Z,18.52
2023-03-24T15:50:32.453Z,17.58
2023-03-24T15:53:06.085Z,14.85
2023-03-24T15:55:37.523Z,19.00
2023-03-24T15:58:29.078Z,23.23
2023-03-24T16:01:00.165Z,19.20
2023-03-24T16:03:30.328Z,18.40
2023-03-24T16:05:57.893Z,23.35
2023-03-24T16:08:39.318Z,12.45
2023-03-24T16:11:11.786Z,18.25
2023-03-24T16:13:41.220Z,17.88
2023-03-24T16:16:14.836Z,23.00
2023-03-24T16:18:44.384Z,21.15
2023-03-24T16:21:20.967Z,20.58
2023-03-24T16:23:50.295Z,18.40
2023-03-24T16:26:22.068Z,20.20
2023-03-24T16:28:50.791Z,17.25
2023-03-24T16:31:35.646Z,23.73
2023-03-24T16:34:03.399Z,16.38
2023-03-24T16:36:31.045Z,24.58
2023-03-24T16:38:59.897Z,15.68
2023-03-24T16:41:28.441Z,12.43
2023-03-24T16:43:55.947Z,19.80
2023-03-24T16:46:26.134Z,18.35
2023-03-24T16:48:54.487Z,17.70
2023-03-24T16:51:22.241Z,11.05
2023-03-24T16:53:49.724Z,18.38
2023-03-24T16:56:22.078Z,15.50
2023-03-24T16:58:52.324Z,14.63
2023-03-24T17:01:33.796Z,21.10
2023-03-24T17:04:04.650Z,16.75
2023-03-24T17:06:33.116Z,17.25
2023-03-24T17:09:00.772Z,19.80
2023-03-24T17:11:34.121Z,27.40
2023-03-24T17:14:09.027Z,24.92
2023-03-24T17:16:38.409Z,20.75
2023-03-24T17:19:06.333Z,17.40
2023-03-24T17:22:01.093Z,19.23
2023-03-24T17:24:30.321Z,24.38
2023-03-24T17:26:57.818Z,21.67
2023-03-24T17:29:25.304Z,30.52
2023-03-24T17:31:53.944Z,37.38
2023-03-24T17:34:22.418Z,25.00
2023-03-24T17:36:51.457Z,25.38
2023-03-24T17:39:20.151Z,23.75
2023-03-24T17:41:47.878Z,26.95
2023-03-24T17:44:15.721Z,24.23
2023-03-24T17:46:43.279Z,24.23
2023-03-24T17:49:11.117Z,36.40
2023-03-24T17:51:38.620Z,26.33
2023-03-24T17:54:06.225Z,25.48
2023-03-24T17:56:33.740Z,30.10
2023-03-24T17:59:03.377Z,18.80
2023-03-24T18:01:31.357Z,24.77
2023-03-24T18:03:58.776Z,23.40
2023-03-24T18:06:27.629Z,30.05
2023-03-24T18:08:55.491Z,27.42
2023-03-24T18:11:23.455Z,20.63
2023-03-24T18:13:52.100Z,20.65
2023-03-24T18:16:21.935Z,24.42
2023-03-24T18:18:51.274Z,20.17
2023-03-24T18:21:19.177Z,24.98
2023-03-24T18:23:47.146Z,26.88
2023-03-24T18:26:16.435Z,23.25
2023-03-24T18:28:46.091Z,40.72
2023-03-24T18:31:26.470Z,30.15
2023-03-24T18:33:55.749Z,34.38
2023-03-24T18:36:26.939Z,27.38
2023-03-24T18:39:06.776Z,29.23
2023-03-24T18:41:37.258Z,36.05
2023-03-24T18:44:07.431Z,33.83
2023-03-24T18:46:35.246Z,36.65
2023-03-24T18:49:03.529Z,28.98
2023-03-24T18:51:33.223Z,35.78
2023-03-24T18:54:01.182Z,42.53
2023-03-24T18:56:28.656Z,40.00
2023-03-24T18:58:56.456Z,31.90
2023-03-24T19:01:23.960Z,37.22
2023-03-24T19:03:52.813Z,41.88
2023-03-24T19:06:20.680Z,24.50
2023-03-24T19:08:55.580Z,33.30
2023-03-24T19:11:24.579Z,45.70
2023-03-24T19:13:52.190Z,48.00
2023-03-24T19:16:21.488Z,31.50
2023-03-24T19:18:50.943Z,26.00
2023-03-24T19:21:19.913Z,36.70
2023-03-24T19:23:48.909Z,33.55
2023-03-24T19:26:19.921Z,24.65
2023-03-24T19:28:55.024Z,27.52
2023-03-24T19:31:22.540Z,30.83
2023-03-24T19:33:56.862Z,19.83
2023-03-24T19:36:25.557Z,27.23
2023-03-24T19:38:54.608Z,23.67
2023-03-24T19:41:26.468Z,29.58
2023-03-24T19:43:54.291Z,32.17
2023-03-24T19:46:22.047Z,23.98
2023-03-24T19:48:51.961Z,25.88
2023-03-24T19:51:21.327Z,25.08
2023-03-24T19:53:48.663Z,33.60
2023-03-24T19:56:19.088Z,32.58
2023-03-24T19:58:46.676Z,32.25
2023-03-24T20:01:14.240Z,33.50
2023-03-24T20:03:41.926Z,35.42
2023-03-24T20:06:17.168Z,24.02
2023-03-24T20:08:46.107Z,25.20
2023-03-24T20:11:13.532Z,26.10
2023-03-24T20:13:49.460Z,24.95
2023-03-24T20:16:17.143Z,25.13
2023-03-24T20:18:44.583Z,25.45
2023-03-24T20:21:18.973Z,23.48
2023-03-24T20:23:47.735Z,29.67
2023-03-24T20:26:17.415Z,23.75
2023-03-24T20:28:45.918Z,25.90
2023-03-24T20:31:13.677Z,22.08
2023-03-24T20:33:41.508Z,16.88
2023-03-24T20:36:11.125Z,19.95
2023-03-24T20:38:38.648Z,19.73
2023-03-24T20:41:07.577Z,26.08
2023-03-24T20:43:37.428Z,24.50
2023-03-24T20:46:09.864Z,14.85
2023-03-24T20:48:52.674Z,17.15
2023-03-24T20:51:21.260Z,23.15
2023-03-24T20:53:49.712Z,16.58
2023-03-24T20:56:19.251Z,13.00
2023-03-24T20:58:47.356Z,16.27
2023-03-24T21:01:23.493Z,23.13
2023-03-24T21:03:53.313Z,13.82
2023-03-24T21:06:22.774Z,12.40
2023-03-24T21:09:00.424Z,16.23
2023-03-24T21:11:30.967Z,16.70
2023-03-24T21:14:10.264Z,14.50
2023-03-24T21:16:41.671Z,13.38
2023-03-24T21:19:10.930Z,11.52
2023-03-24T21:21:38.536Z,10.95
2023-03-24T21:24:06.544Z,8.52
2023-03-24T21:26:35.743Z,10.65
2023-03-24T21:29:03.511Z,12.23
2023-03-24T21:31:31.077Z,15.05
2023-03-24T21:33:59.157Z,7.72
2023-03-24T21:36:30.679Z,9.07
2023-03-24T21:38:58.868Z,12.23
2023-03-24T21:41:28.240Z,11.35
2023-03-24T21:43:55.744Z,11.48
2023-03-24T21:46:26.541Z,18.27
2023-03-24T21:48:59.532Z,8.25
2023-03-24T21:51:37.037Z,11.00
2023-03-24T21:54:06.925Z,9.98
2023-03-24T21:56:35.826Z,11.25
2023-03-24T21:59:04.864Z,10.20
2023-03-24T22:01:34.210Z,7.82
2023-03-24T22:04:01.838Z,10.65
2023-03-24T22:09:10.605Z,9.35
2023-03-24T22:11:43.055Z,7.93
2023-03-24T22:14:10.730Z,6.43
2023-03-24T22:16:38.196Z,10.98
2023-03-24T22:19:05.928Z,15.50
2023-03-24T22:21:33.472Z,21.08
2023-03-24T22:24:00.798Z,22.95
2023-03-24T22:26:28.264Z,28.50
2023-03-24T22:28:56.495Z,27.23
2023-03-24T22:31:24.810Z,30.02
2023-03-24T22:33:53.228Z,37.83
2023-03-24T22:36:21.435Z,32.35
2023-03-24T22:38:49.004Z,33.30
2023-03-24T22:41:16.440Z,18.55
2023-03-24T22:43:43.998Z,22.70
2023-03-24T22:46:11.665Z,20.40
2023-03-24T22:48:42.259Z,19.92
2023-03-24T22:51:10.139Z,15.10
2023-03-24T22:53:37.462Z,19.95
2023-03-24T22:56:06.423Z,20.25
2023-03-24T22:58:35.884Z,24.88
2023-03-24T23:01:04.058Z,23.35
2023-03-24T23:03:31.604Z,24.20
2023-03-24T23:06:03.701Z,25.17
2023-03-24T23:08:33.185Z,20.10
2023-03-24T23:11:00.996Z,25.92
2023-03-24T23:13:30.946Z,23.63
2023-03-24T23:15:58.482Z,33.33
2023-03-24T23:18:26.001Z,22.50
2023-03-24T23:21:03.349Z,22.98
2023-03-24T23:23:31.040Z,20.40
2023-03-24T23:25:58.631Z,19.25
2023-03-24T23:28:26.250Z,19.17
2023-03-24T23:30:54.591Z,23.33
2023-03-24T23:33:23.628Z,18.52
2023-03-24T23:35:57.135Z,18.92
2023-03-24T23:38:24.816Z,21.70
2023-03-24T23:40:52.202Z,17.88
2023-03-24T23:43:19.679Z,18.83
2023-03-24T23:45:47.347Z,18.38
2023-03-24T23:48:15.113Z,17.25
2023-03-24T23:50:46.576Z,13.52
2023-03-24T23:53:13.859Z,18.90
2023-03-24T23:55:41.869Z,10.20
2023-03-24T23:58:12.107Z,8.25
